<?xml version="1.0" encoding="UTF-8" standalone="no" ?>
<gpx xmlns="http://www.topografix.com/GPX/1/1" xmlns:xsi="http://www.w3.org/2001/XMLSchema-instance" xsi:schemaLocation="http://www.topografix.com/GPX/1/1 http://www.topografix.com/GPX/1/1/gpx.xsd" version="1.1" creator="VisuGPX - https://www.visugpx.com">
  <metadata>
    <name>Picouse par Carraire du Bois de Giere</name>
    <desc><![CDATA[Une des randos de l'OT hautes terres de Provence à Turriers]]></desc>
  </metadata>
  <trk>
    <name><![CDATA[04 - Turriers-MNT]]></name>
    <trkseg>
      <trkpt lat="44.38429" lon="6.16229">
        <ele>1105.442017</ele>
        <time>2011-11-10T19:47:23Z</time>
      </trkpt>
      <trkpt lat="44.38429" lon="6.16228">
        <ele>1105.297607</ele>
        <time>2011-11-10T19:47:23Z</time>
      </trkpt>
      <trkpt lat="44.38412" lon="6.16234">
        <ele>1106.5</ele>
        <time>2011-11-10T19:47:30Z</time>
      </trkpt>
      <trkpt lat="44.38389" lon="6.16224">
        <ele>1105.3927</ele>
      </trkpt>
      <trkpt lat="44.38353" lon="6.16216">
        <ele>1105.30957</ele>
        <time>2011-11-10T19:47:54Z</time>
      </trkpt>
      <trkpt lat="44.3834" lon="6.16208">
        <ele>1105.385742</ele>
      </trkpt>
      <trkpt lat="44.38332" lon="6.16196">
        <ele>1105.154907</ele>
        <time>2011-11-10T19:48:04Z</time>
      </trkpt>
      <trkpt lat="44.38321" lon="6.16168">
        <ele>1105.373657</ele>
        <time>2011-11-10T19:48:13Z</time>
      </trkpt>
      <trkpt lat="44.38325" lon="6.16149">
        <ele>1104.679565</ele>
        <time>2011-11-10T19:48:19Z</time>
      </trkpt>
      <trkpt lat="44.38349" lon="6.16127">
        <ele>1102.421265</ele>
      </trkpt>
      <trkpt lat="44.38363" lon="6.1611">
        <ele>1101.512451</ele>
        <time>2011-11-10T19:48:38Z</time>
      </trkpt>
      <trkpt lat="44.38369" lon="6.16088">
        <ele>1101.398804</ele>
        <time>2011-11-10T19:48:45Z</time>
      </trkpt>
      <trkpt lat="44.38374" lon="6.16029">
        <ele>1103.535034</ele>
        <time>2011-11-10T19:49:02Z</time>
      </trkpt>
      <trkpt lat="44.38392" lon="6.15937">
        <ele>1109.099976</ele>
        <time>2011-11-10T19:49:29Z</time>
      </trkpt>
      <trkpt lat="44.38402" lon="6.15907">
        <ele>1110.743774</ele>
        <time>2011-11-10T19:49:38Z</time>
      </trkpt>
      <trkpt lat="44.38404" lon="6.15882">
        <ele>1112.545044</ele>
        <time>2011-11-10T19:49:46Z</time>
      </trkpt>
      <trkpt lat="44.38394" lon="6.15824">
        <ele>1117.257446</ele>
        <time>2011-11-10T19:50:03Z</time>
      </trkpt>
      <trkpt lat="44.38402" lon="6.15808">
        <ele>1117.38501</ele>
        <time>2011-11-10T19:50:08Z</time>
      </trkpt>
      <trkpt lat="44.38419" lon="6.1581">
        <ele>1117.027466</ele>
        <time>2011-11-10T19:50:15Z</time>
      </trkpt>
      <trkpt lat="44.3843" lon="6.15818">
        <ele>1116.932495</ele>
      </trkpt>
      <trkpt lat="44.38444" lon="6.1584">
        <ele>1115.908203</ele>
        <time>2011-11-10T19:50:28Z</time>
      </trkpt>
      <trkpt lat="44.38473" lon="6.15863">
        <ele>1116.049805</ele>
        <time>2011-11-10T19:50:42Z</time>
      </trkpt>
      <trkpt lat="44.38498" lon="6.15849">
        <ele>1119.375732</ele>
        <time>2011-11-10T19:50:52Z</time>
      </trkpt>
      <trkpt lat="44.38509" lon="6.15854">
        <ele>1119.131958</ele>
        <time>2011-11-10T19:50:57Z</time>
      </trkpt>
      <trkpt lat="44.38536" lon="6.1581">
        <ele>1123.003784</ele>
        <time>2011-11-10T19:51:14Z</time>
      </trkpt>
      <trkpt lat="44.3855" lon="6.15778">
        <ele>1124.219727</ele>
        <time>2011-11-10T19:51:24Z</time>
      </trkpt>
      <trkpt lat="44.38557" lon="6.1572">
        <ele>1127.837158</ele>
        <time>2011-11-10T19:51:41Z</time>
      </trkpt>
      <trkpt lat="44.38562" lon="6.15704">
        <ele>1128.890137</ele>
        <time>2011-11-10T19:51:46Z</time>
      </trkpt>
      <trkpt lat="44.3859" lon="6.1565">
        <ele>1133.062866</ele>
        <time>2011-11-10T19:52:05Z</time>
      </trkpt>
      <trkpt lat="44.38629" lon="6.15521">
        <ele>1149.288696</ele>
        <time>2011-11-10T19:52:45Z</time>
      </trkpt>
      <trkpt lat="44.38635" lon="6.15512">
        <ele>1151.142456</ele>
        <time>2011-11-10T19:52:49Z</time>
      </trkpt>
      <trkpt lat="44.38669" lon="6.15529">
        <ele>1150.203369</ele>
      </trkpt>
      <trkpt lat="44.38683" lon="6.15536">
        <ele>1149.763184</ele>
        <time>2011-11-10T19:53:09Z</time>
      </trkpt>
      <trkpt lat="44.38703" lon="6.15542">
        <ele>1148.3302</ele>
        <time>2011-11-10T19:53:17Z</time>
      </trkpt>
      <trkpt lat="44.38725" lon="6.15541">
        <ele>1147.773682</ele>
        <time>2011-11-10T19:53:26Z</time>
      </trkpt>
      <trkpt lat="44.38736" lon="6.15535">
        <ele>1148.466553</ele>
        <time>2011-11-10T19:53:31Z</time>
      </trkpt>
      <trkpt lat="44.38742" lon="6.1552">
        <ele>1151.912476</ele>
      </trkpt>
      <trkpt lat="44.38748" lon="6.15512">
        <ele>1153.617432</ele>
        <time>2011-11-10T19:53:39Z</time>
      </trkpt>
      <trkpt lat="44.38757" lon="6.15507">
        <ele>1154.121216</ele>
      </trkpt>
      <trkpt lat="44.38762" lon="6.15496">
        <ele>1156.719971</ele>
        <time>2011-11-10T19:53:46Z</time>
      </trkpt>
      <trkpt lat="44.38771" lon="6.15465">
        <ele>1164.754883</ele>
        <time>2011-11-10T19:53:56Z</time>
      </trkpt>
      <trkpt lat="44.38783" lon="6.15447">
        <ele>1169.924316</ele>
        <time>2011-11-10T19:54:03Z</time>
      </trkpt>
      <trkpt lat="44.38813" lon="6.15437">
        <ele>1176.592651</ele>
        <time>2011-11-10T19:54:15Z</time>
      </trkpt>
      <trkpt lat="44.3883" lon="6.15445">
        <ele>1176.311523</ele>
        <time>2011-11-10T19:54:23Z</time>
      </trkpt>
      <trkpt lat="44.38854" lon="6.15475">
        <ele>1172.491699</ele>
        <time>2011-11-10T19:54:35Z</time>
      </trkpt>
      <trkpt lat="44.38866" lon="6.15483">
        <ele>1173.113525</ele>
      </trkpt>
      <trkpt lat="44.38876" lon="6.15483">
        <ele>1174.91272</ele>
        <time>2011-11-10T19:54:45Z</time>
      </trkpt>
      <trkpt lat="44.38973" lon="6.15456">
        <ele>1183.819946</ele>
        <time>2011-11-10T19:55:24Z</time>
      </trkpt>
      <trkpt lat="44.38983" lon="6.15443">
        <ele>1184.110107</ele>
        <time>2011-11-10T19:55:30Z</time>
      </trkpt>
      <trkpt lat="44.38982" lon="6.1543">
        <ele>1186.39502</ele>
        <time>2011-11-10T19:55:33Z</time>
      </trkpt>
      <trkpt lat="44.38978" lon="6.15412">
        <ele>1187.687622</ele>
      </trkpt>
      <trkpt lat="44.38965" lon="6.15388">
        <ele>1191.129272</ele>
        <time>2011-11-10T19:55:47Z</time>
      </trkpt>
      <trkpt lat="44.38935" lon="6.15331">
        <ele>1197.377563</ele>
        <time>2011-11-10T19:56:07Z</time>
      </trkpt>
      <trkpt lat="44.38885" lon="6.15249">
        <ele>1209.064819</ele>
        <time>2011-11-10T19:56:38Z</time>
      </trkpt>
      <trkpt lat="44.38851" lon="6.1517">
        <ele>1215.794556</ele>
      </trkpt>
      <trkpt lat="44.38827" lon="6.15111">
        <ele>1216.539673</ele>
        <time>2011-11-10T19:57:24Z</time>
      </trkpt>
      <trkpt lat="44.38812" lon="6.15077">
        <ele>1214.427856</ele>
      </trkpt>
      <trkpt lat="44.38799" lon="6.15064">
        <ele>1215.97583</ele>
        <time>2011-11-10T19:57:42Z</time>
      </trkpt>
      <trkpt lat="44.38789" lon="6.15058">
        <ele>1216.167847</ele>
      </trkpt>
      <trkpt lat="44.38778" lon="6.15058">
        <ele>1216.417725</ele>
        <time>2011-11-10T19:57:50Z</time>
      </trkpt>
      <trkpt lat="44.38758" lon="6.15073">
        <ele>1223.486206</ele>
      </trkpt>
      <trkpt lat="44.38733" lon="6.15098">
        <ele>1231.592285</ele>
        <time>2011-11-10T19:58:12Z</time>
      </trkpt>
      <trkpt lat="44.387" lon="6.15138">
        <ele>1235.571045</ele>
        <time>2011-11-10T19:58:30Z</time>
      </trkpt>
      <trkpt lat="44.38677" lon="6.15153">
        <ele>1239</ele>
      </trkpt>
      <trkpt lat="44.38649" lon="6.15154">
        <ele>1238.672974</ele>
        <time>2011-11-10T19:58:51Z</time>
      </trkpt>
      <trkpt lat="44.38633" lon="6.1515">
        <ele>1239.012939</ele>
        <time>2011-11-10T19:58:57Z</time>
      </trkpt>
      <trkpt lat="44.38604" lon="6.1513">
        <ele>1241.653809</ele>
        <time>2011-11-10T19:59:10Z</time>
      </trkpt>
      <trkpt lat="44.38541" lon="6.15099">
        <ele>1252.832031</ele>
        <time>2011-11-10T19:59:37Z</time>
      </trkpt>
      <trkpt lat="44.38481" lon="6.15087">
        <ele>1259.05896</ele>
        <time>2011-11-10T20:00:01Z</time>
      </trkpt>
      <trkpt lat="44.38438" lon="6.15056">
        <ele>1270.321045</ele>
        <time>2011-11-10T20:00:20Z</time>
      </trkpt>
      <trkpt lat="44.38407" lon="6.1504">
        <ele>1277.814209</ele>
        <time>2011-11-10T20:00:34Z</time>
      </trkpt>
      <trkpt lat="44.38388" lon="6.15038">
        <ele>1279.655029</ele>
        <time>2011-11-10T20:00:41Z</time>
      </trkpt>
      <trkpt lat="44.38371" lon="6.1504">
        <ele>1280.877686</ele>
      </trkpt>
      <trkpt lat="44.38359" lon="6.15051">
        <ele>1277.348999</ele>
      </trkpt>
      <trkpt lat="44.3834" lon="6.1505">
        <ele>1281.027954</ele>
        <time>2011-11-10T20:01:01Z</time>
      </trkpt>
      <trkpt lat="44.38329" lon="6.15062">
        <ele>1278.813721</ele>
      </trkpt>
      <trkpt lat="44.38321" lon="6.15065">
        <ele>1279.449219</ele>
        <time>2011-11-10T20:01:09Z</time>
      </trkpt>
      <trkpt lat="44.38294" lon="6.15065">
        <ele>1287.393799</ele>
        <time>2011-11-10T20:01:20Z</time>
      </trkpt>
      <trkpt lat="44.38248" lon="6.15095">
        <ele>1288.290161</ele>
        <time>2011-11-10T20:01:41Z</time>
      </trkpt>
      <trkpt lat="44.38228" lon="6.15099">
        <ele>1290.279541</ele>
        <time>2011-11-10T20:01:49Z</time>
      </trkpt>
      <trkpt lat="44.38202" lon="6.151">
        <ele>1294.213989</ele>
        <time>2011-11-10T20:01:59Z</time>
      </trkpt>
      <trkpt lat="44.38184" lon="6.1509">
        <ele>1301.016602</ele>
      </trkpt>
      <trkpt lat="44.38175" lon="6.15083">
        <ele>1305.454712</ele>
      </trkpt>
      <trkpt lat="44.38161" lon="6.15085">
        <ele>1306.880737</ele>
      </trkpt>
      <trkpt lat="44.38147" lon="6.15092">
        <ele>1306.26123</ele>
        <time>2011-11-10T20:02:23Z</time>
      </trkpt>
      <trkpt lat="44.38126" lon="6.15097">
        <ele>1307.385986</ele>
        <time>2011-11-10T20:02:32Z</time>
      </trkpt>
      <trkpt lat="44.38115" lon="6.1511">
        <ele>1303.103027</ele>
      </trkpt>
      <trkpt lat="44.38105" lon="6.15114">
        <ele>1302.810547</ele>
        <time>2011-11-10T20:02:42Z</time>
      </trkpt>
      <trkpt lat="44.38091" lon="6.15116">
        <ele>1304.410034</ele>
        <time>2011-11-10T20:02:47Z</time>
      </trkpt>
      <trkpt lat="44.38074" lon="6.15111">
        <ele>1309.482422</ele>
        <time>2011-11-10T20:02:54Z</time>
      </trkpt>
      <trkpt lat="44.38046" lon="6.1509">
        <ele>1325.609985</ele>
        <time>2011-11-10T20:03:07Z</time>
      </trkpt>
      <trkpt lat="44.38022" lon="6.15092">
        <ele>1329.781738</ele>
        <time>2011-11-10T20:03:17Z</time>
      </trkpt>
      <trkpt lat="44.38001" lon="6.15109">
        <ele>1327.00061</ele>
      </trkpt>
      <trkpt lat="44.37964" lon="6.15136">
        <ele>1326.688843</ele>
        <time>2011-11-10T20:03:43Z</time>
      </trkpt>
      <trkpt lat="44.37936" lon="6.15147">
        <ele>1331.850464</ele>
        <time>2011-11-10T20:03:55Z</time>
      </trkpt>
      <trkpt lat="44.37919" lon="6.15146">
        <ele>1339.688965</ele>
      </trkpt>
      <trkpt lat="44.37911" lon="6.1515">
        <ele>1340.978516</ele>
        <time>2011-11-10T20:04:05Z</time>
      </trkpt>
      <trkpt lat="44.37905" lon="6.15168">
        <ele>1333.911987</ele>
      </trkpt>
      <trkpt lat="44.37897" lon="6.15179">
        <ele>1331.744873</ele>
        <time>2011-11-10T20:04:15Z</time>
      </trkpt>
      <trkpt lat="44.37884" lon="6.15186">
        <ele>1333.815186</ele>
      </trkpt>
      <trkpt lat="44.37868" lon="6.15188">
        <ele>1339.016357</ele>
        <time>2011-11-10T20:04:27Z</time>
      </trkpt>
      <trkpt lat="44.37826" lon="6.15224">
        <ele>1340.046753</ele>
        <time>2011-11-10T20:04:46Z</time>
      </trkpt>
      <trkpt lat="44.37814" lon="6.15229">
        <ele>1343.7677</ele>
      </trkpt>
      <trkpt lat="44.37798" lon="6.15231">
        <ele>1349.642822</ele>
        <time>2011-11-10T20:04:58Z</time>
      </trkpt>
      <trkpt lat="44.37791" lon="6.15237">
        <ele>1348.217896</ele>
        <time>2011-11-10T20:05:01Z</time>
      </trkpt>
      <trkpt lat="44.37785" lon="6.15257">
        <ele>1338.483032</ele>
        <time>2011-11-10T20:05:07Z</time>
      </trkpt>
      <trkpt lat="44.37779" lon="6.15262">
        <ele>1337.300049</ele>
        <time>2011-11-10T20:05:10Z</time>
      </trkpt>
      <trkpt lat="44.37755" lon="6.15261">
        <ele>1344.771484</ele>
      </trkpt>
      <trkpt lat="44.37736" lon="6.15254">
        <ele>1350.251709</ele>
        <time>2011-11-10T20:05:27Z</time>
      </trkpt>
      <trkpt lat="44.37699" lon="6.15237">
        <ele>1360.903442</ele>
        <time>2011-11-10T20:05:43Z</time>
      </trkpt>
      <trkpt lat="44.37691" lon="6.15224">
        <ele>1367.771851</ele>
        <time>2011-11-10T20:05:48Z</time>
      </trkpt>
      <trkpt lat="44.3768" lon="6.15222">
        <ele>1369.405518</ele>
        <time>2011-11-10T20:05:52Z</time>
      </trkpt>
      <trkpt lat="44.37669" lon="6.15228">
        <ele>1367.167236</ele>
        <time>2011-11-10T20:05:57Z</time>
      </trkpt>
      <trkpt lat="44.37651" lon="6.1525">
        <ele>1358.015503</ele>
        <time>2011-11-10T20:06:07Z</time>
      </trkpt>
      <trkpt lat="44.37644" lon="6.15262">
        <ele>1352.762939</ele>
        <time>2011-11-10T20:06:11Z</time>
      </trkpt>
      <trkpt lat="44.37642" lon="6.15279">
        <ele>1344.637451</ele>
        <time>2011-11-10T20:06:16Z</time>
      </trkpt>
      <trkpt lat="44.37632" lon="6.15308">
        <ele>1331.462524</ele>
        <time>2011-11-10T20:06:25Z</time>
      </trkpt>
      <trkpt lat="44.37588" lon="6.15292">
        <ele>1343.26001</ele>
        <time>2011-11-10T20:06:43Z</time>
      </trkpt>
      <trkpt lat="44.37565" lon="6.15298">
        <ele>1342.908447</ele>
        <time>2011-11-10T20:06:53Z</time>
      </trkpt>
      <trkpt lat="44.37547" lon="6.15296">
        <ele>1346.493164</ele>
        <time>2011-11-10T20:07:00Z</time>
      </trkpt>
      <trkpt lat="44.37512" lon="6.15289">
        <ele>1355.021362</ele>
      </trkpt>
      <trkpt lat="44.37465" lon="6.1527">
        <ele>1372.057251</ele>
        <time>2011-11-10T20:07:34Z</time>
      </trkpt>
      <trkpt lat="44.37452" lon="6.1527">
        <ele>1376.076172</ele>
        <time>2011-11-10T20:07:39Z</time>
      </trkpt>
      <trkpt lat="44.37423" lon="6.15289">
        <ele>1380.277954</ele>
      </trkpt>
      <trkpt lat="44.374" lon="6.15299">
        <ele>1385.353638</ele>
        <time>2011-11-10T20:08:01Z</time>
      </trkpt>
      <trkpt lat="44.37395" lon="6.15319">
        <ele>1383.101563</ele>
        <time>2011-11-10T20:08:07Z</time>
      </trkpt>
      <trkpt lat="44.37379" lon="6.15302">
        <ele>1390.718384</ele>
        <time>2011-11-10T20:08:15Z</time>
      </trkpt>
      <trkpt lat="44.37346" lon="6.15288">
        <ele>1400.074829</ele>
      </trkpt>
      <trkpt lat="44.37317" lon="6.15269">
        <ele>1405.823853</ele>
        <time>2011-11-10T20:08:42Z</time>
      </trkpt>
      <trkpt lat="44.37342" lon="6.15262">
        <ele>1402.847412</ele>
        <time>2011-11-10T20:08:52Z</time>
      </trkpt>
      <trkpt lat="44.37348" lon="6.15255">
        <ele>1402.626099</ele>
        <time>2011-11-10T20:08:55Z</time>
      </trkpt>
      <trkpt lat="44.37353" lon="6.15238">
        <ele>1405.85498</ele>
      </trkpt>
      <trkpt lat="44.3736" lon="6.15197">
        <ele>1415.719971</ele>
        <time>2011-11-10T20:09:12Z</time>
      </trkpt>
      <trkpt lat="44.37359" lon="6.15174">
        <ele>1421.849976</ele>
        <time>2011-11-10T20:09:19Z</time>
      </trkpt>
      <trkpt lat="44.37353" lon="6.15158">
        <ele>1426.637207</ele>
      </trkpt>
      <trkpt lat="44.37335" lon="6.15129">
        <ele>1434.42749</ele>
        <time>2011-11-10T20:09:35Z</time>
      </trkpt>
      <trkpt lat="44.37333" lon="6.15107">
        <ele>1439.820557</ele>
        <time>2011-11-10T20:09:41Z</time>
      </trkpt>
      <trkpt lat="44.3734" lon="6.15094">
        <ele>1443.077148</ele>
        <time>2011-11-10T20:09:46Z</time>
      </trkpt>
      <trkpt lat="44.37391" lon="6.15036">
        <ele>1455.727173</ele>
        <time>2011-11-10T20:10:12Z</time>
      </trkpt>
      <trkpt lat="44.37443" lon="6.14957">
        <ele>1475.182495</ele>
      </trkpt>
      <trkpt lat="44.37494" lon="6.1488">
        <ele>1487.742798</ele>
        <time>2011-11-10T20:11:13Z</time>
      </trkpt>
      <trkpt lat="44.375" lon="6.1486">
        <ele>1490.816284</ele>
      </trkpt>
      <trkpt lat="44.37502" lon="6.1483">
        <ele>1495.184937</ele>
        <time>2011-11-10T20:11:28Z</time>
      </trkpt>
      <trkpt lat="44.37524" lon="6.148">
        <ele>1499.14563</ele>
        <time>2011-11-10T20:11:40Z</time>
      </trkpt>
      <trkpt lat="44.37547" lon="6.14785">
        <ele>1502.108276</ele>
      </trkpt>
      <trkpt lat="44.37563" lon="6.1476">
        <ele>1505.660278</ele>
      </trkpt>
      <trkpt lat="44.37566" lon="6.14737">
        <ele>1508.107544</ele>
      </trkpt>
      <trkpt lat="44.37577" lon="6.14696">
        <ele>1513.531128</ele>
      </trkpt>
      <trkpt lat="44.37603" lon="6.14652">
        <ele>1518.806274</ele>
      </trkpt>
      <trkpt lat="44.37611" lon="6.14635">
        <ele>1519.581543</ele>
      </trkpt>
      <trkpt lat="44.3764" lon="6.14617">
        <ele>1523.203491</ele>
        <time>2011-11-10T20:12:56Z</time>
      </trkpt>
      <trkpt lat="44.37669" lon="6.14593">
        <ele>1528.419189</ele>
        <time>2011-11-10T20:13:09Z</time>
      </trkpt>
      <trkpt lat="44.37669" lon="6.14593">
        <ele>1528.419189</ele>
        <time>2011-11-10T20:13:09Z</time>
      </trkpt>
      <trkpt lat="44.37687" lon="6.14581">
        <ele>1533.409668</ele>
        <time>2011-11-10T20:13:17Z</time>
      </trkpt>
      <trkpt lat="44.3772" lon="6.14551">
        <ele>1542.549805</ele>
      </trkpt>
      <trkpt lat="44.37733" lon="6.14536">
        <ele>1547.491455</ele>
        <time>2011-11-10T20:13:40Z</time>
      </trkpt>
      <trkpt lat="44.37754" lon="6.14502">
        <ele>1554.450562</ele>
      </trkpt>
      <trkpt lat="44.37768" lon="6.14469">
        <ele>1558.855225</ele>
        <time>2011-11-10T20:14:04Z</time>
      </trkpt>
      <trkpt lat="44.37787" lon="6.14397">
        <ele>1564.032471</ele>
        <time>2011-11-10T20:14:26Z</time>
      </trkpt>
      <trkpt lat="44.37785" lon="6.14355">
        <ele>1564.622192</ele>
        <time>2011-11-10T20:14:38Z</time>
      </trkpt>
      <trkpt lat="44.3777" lon="6.14286">
        <ele>1563.809692</ele>
        <time>2011-11-10T20:14:58Z</time>
      </trkpt>
      <trkpt lat="44.37769" lon="6.14266">
        <ele>1563.566772</ele>
        <time>2011-11-10T20:15:04Z</time>
      </trkpt>
      <trkpt lat="44.37778" lon="6.1423">
        <ele>1564.450073</ele>
      </trkpt>
      <trkpt lat="44.37812" lon="6.14239">
        <ele>1562.095337</ele>
      </trkpt>
      <trkpt lat="44.37863" lon="6.14279">
        <ele>1548.470581</ele>
      </trkpt>
      <trkpt lat="44.37906" lon="6.14294">
        <ele>1536.990967</ele>
      </trkpt>
      <trkpt lat="44.37955" lon="6.14332">
        <ele>1517.302368</ele>
      </trkpt>
      <trkpt lat="44.37997" lon="6.14351">
        <ele>1500.4198</ele>
      </trkpt>
      <trkpt lat="44.3803" lon="6.1438">
        <ele>1486.973877</ele>
      </trkpt>
      <trkpt lat="44.38049" lon="6.14429">
        <ele>1469.782349</ele>
      </trkpt>
      <trkpt lat="44.38084" lon="6.14468">
        <ele>1442.414551</ele>
      </trkpt>
      <trkpt lat="44.38086" lon="6.14542">
        <ele>1427.446533</ele>
      </trkpt>
      <trkpt lat="44.38097" lon="6.14607">
        <ele>1413.125</ele>
      </trkpt>
      <trkpt lat="44.38116" lon="6.14619">
        <ele>1399.689941</ele>
      </trkpt>
      <trkpt lat="44.38186" lon="6.14685">
        <ele>1377.695923</ele>
      </trkpt>
      <trkpt lat="44.38232" lon="6.14729">
        <ele>1376.735352</ele>
      </trkpt>
      <trkpt lat="44.38275" lon="6.14739">
        <ele>1367.862305</ele>
      </trkpt>
      <trkpt lat="44.38295" lon="6.14758">
        <ele>1367.207397</ele>
      </trkpt>
      <trkpt lat="44.38339" lon="6.14801">
        <ele>1357.852539</ele>
      </trkpt>
      <trkpt lat="44.38379" lon="6.14852">
        <ele>1346.536011</ele>
      </trkpt>
      <trkpt lat="44.38417" lon="6.14906">
        <ele>1330.067261</ele>
      </trkpt>
      <trkpt lat="44.38466" lon="6.1494">
        <ele>1310.825684</ele>
      </trkpt>
      <trkpt lat="44.38506" lon="6.14989">
        <ele>1288.713135</ele>
      </trkpt>
      <trkpt lat="44.38538" lon="6.15013">
        <ele>1275.995605</ele>
      </trkpt>
      <trkpt lat="44.38564" lon="6.15043">
        <ele>1261.978149</ele>
      </trkpt>
      <trkpt lat="44.38579" lon="6.15071">
        <ele>1254.559082</ele>
      </trkpt>
      <trkpt lat="44.38599" lon="6.15083">
        <ele>1249.633545</ele>
      </trkpt>
      <trkpt lat="44.38611" lon="6.15112">
        <ele>1243.892456</ele>
      </trkpt>
      <trkpt lat="44.38603" lon="6.15132">
        <ele>1241.338013</ele>
      </trkpt>
      <trkpt lat="44.38632" lon="6.15151">
        <ele>1238.882324</ele>
      </trkpt>
      <trkpt lat="44.38649" lon="6.15154">
        <ele>1238.637451</ele>
      </trkpt>
      <trkpt lat="44.38676" lon="6.15155">
        <ele>1238.92395</ele>
      </trkpt>
      <trkpt lat="44.387" lon="6.1514">
        <ele>1235.942383</ele>
      </trkpt>
      <trkpt lat="44.38733" lon="6.15099">
        <ele>1231.809814</ele>
      </trkpt>
      <trkpt lat="44.38757" lon="6.15073">
        <ele>1223.494141</ele>
      </trkpt>
      <trkpt lat="44.38778" lon="6.15059">
        <ele>1216.607056</ele>
      </trkpt>
      <trkpt lat="44.38789" lon="6.15059">
        <ele>1216.198364</ele>
      </trkpt>
      <trkpt lat="44.38799" lon="6.15065">
        <ele>1216.268311</ele>
      </trkpt>
      <trkpt lat="44.38811" lon="6.15078">
        <ele>1214.793945</ele>
      </trkpt>
      <trkpt lat="44.38827" lon="6.15112">
        <ele>1216.719116</ele>
      </trkpt>
      <trkpt lat="44.38852" lon="6.15171">
        <ele>1215.537598</ele>
      </trkpt>
      <trkpt lat="44.38885" lon="6.15249">
        <ele>1209.333252</ele>
      </trkpt>
      <trkpt lat="44.38936" lon="6.15331">
        <ele>1197.119019</ele>
      </trkpt>
      <trkpt lat="44.38965" lon="6.15388">
        <ele>1191.171875</ele>
      </trkpt>
      <trkpt lat="44.38978" lon="6.15413">
        <ele>1187.623779</ele>
      </trkpt>
      <trkpt lat="44.38982" lon="6.1543">
        <ele>1186.473145</ele>
      </trkpt>
      <trkpt lat="44.38982" lon="6.15443">
        <ele>1184.286011</ele>
      </trkpt>
      <trkpt lat="44.38973" lon="6.15455">
        <ele>1183.974976</ele>
      </trkpt>
      <trkpt lat="44.38876" lon="6.15484">
        <ele>1174.402222</ele>
      </trkpt>
      <trkpt lat="44.38865" lon="6.15483">
        <ele>1172.977539</ele>
      </trkpt>
      <trkpt lat="44.38854" lon="6.15475">
        <ele>1172.515015</ele>
      </trkpt>
      <trkpt lat="44.3883" lon="6.15445">
        <ele>1176.296265</ele>
      </trkpt>
      <trkpt lat="44.38812" lon="6.15437">
        <ele>1176.496826</ele>
      </trkpt>
      <trkpt lat="44.38783" lon="6.15447">
        <ele>1169.878052</ele>
      </trkpt>
      <trkpt lat="44.38771" lon="6.15465">
        <ele>1164.767578</ele>
      </trkpt>
      <trkpt lat="44.38762" lon="6.15497">
        <ele>1156.51123</ele>
      </trkpt>
      <trkpt lat="44.38756" lon="6.15509">
        <ele>1153.810059</ele>
      </trkpt>
      <trkpt lat="44.38747" lon="6.15513">
        <ele>1153.568726</ele>
      </trkpt>
      <trkpt lat="44.38742" lon="6.1552">
        <ele>1151.933716</ele>
      </trkpt>
      <trkpt lat="44.38735" lon="6.15536">
        <ele>1148.333374</ele>
      </trkpt>
      <trkpt lat="44.38725" lon="6.15542">
        <ele>1147.602661</ele>
      </trkpt>
      <trkpt lat="44.38704" lon="6.15542">
        <ele>1148.225952</ele>
      </trkpt>
      <trkpt lat="44.38683" lon="6.15537">
        <ele>1149.525513</ele>
      </trkpt>
      <trkpt lat="44.38669" lon="6.1553">
        <ele>1150.089355</ele>
      </trkpt>
      <trkpt lat="44.38634" lon="6.15512">
        <ele>1151.127441</ele>
      </trkpt>
      <trkpt lat="44.38628" lon="6.15522">
        <ele>1149.143311</ele>
      </trkpt>
      <trkpt lat="44.38589" lon="6.15651">
        <ele>1133.023682</ele>
      </trkpt>
      <trkpt lat="44.38561" lon="6.15704">
        <ele>1128.926147</ele>
      </trkpt>
      <trkpt lat="44.38556" lon="6.15721">
        <ele>1127.816895</ele>
      </trkpt>
      <trkpt lat="44.38551" lon="6.15777">
        <ele>1124.214478</ele>
      </trkpt>
      <trkpt lat="44.38536" lon="6.1581">
        <ele>1122.996216</ele>
      </trkpt>
      <trkpt lat="44.38509" lon="6.15854">
        <ele>1119.096069</ele>
      </trkpt>
      <trkpt lat="44.38498" lon="6.15849">
        <ele>1119.418823</ele>
      </trkpt>
      <trkpt lat="44.38473" lon="6.15864">
        <ele>1115.984619</ele>
      </trkpt>
      <trkpt lat="44.38444" lon="6.1584">
        <ele>1115.904175</ele>
      </trkpt>
      <trkpt lat="44.38429" lon="6.15817">
        <ele>1116.94751</ele>
      </trkpt>
      <trkpt lat="44.38418" lon="6.1581">
        <ele>1117.013794</ele>
      </trkpt>
      <trkpt lat="44.38401" lon="6.15808">
        <ele>1117.497559</ele>
      </trkpt>
      <trkpt lat="44.38394" lon="6.15824">
        <ele>1117.285034</ele>
      </trkpt>
      <trkpt lat="44.38404" lon="6.15882">
        <ele>1112.550049</ele>
      </trkpt>
      <trkpt lat="44.38402" lon="6.15907">
        <ele>1110.734985</ele>
      </trkpt>
      <trkpt lat="44.38392" lon="6.15938">
        <ele>1108.977539</ele>
      </trkpt>
      <trkpt lat="44.38374" lon="6.1603">
        <ele>1103.484985</ele>
      </trkpt>
      <trkpt lat="44.38368" lon="6.16087">
        <ele>1101.476196</ele>
      </trkpt>
      <trkpt lat="44.38364" lon="6.1611">
        <ele>1101.456299</ele>
      </trkpt>
      <trkpt lat="44.38349" lon="6.16127">
        <ele>1102.451294</ele>
      </trkpt>
      <trkpt lat="44.38324" lon="6.1615">
        <ele>1104.776367</ele>
      </trkpt>
      <trkpt lat="44.38321" lon="6.16167">
        <ele>1105.37085</ele>
      </trkpt>
      <trkpt lat="44.38331" lon="6.16196">
        <ele>1105.209351</ele>
      </trkpt>
      <trkpt lat="44.38341" lon="6.16209">
        <ele>1105.379395</ele>
      </trkpt>
      <trkpt lat="44.38354" lon="6.16217">
        <ele>1105.343628</ele>
      </trkpt>
      <trkpt lat="44.38389" lon="6.16225">
        <ele>1105.47998</ele>
      </trkpt>
      <trkpt lat="44.38412" lon="6.16236">
        <ele>1106.831055</ele>
      </trkpt>
      <trkpt lat="44.38429" lon="6.1623">
        <ele>1105.560547</ele>
      </trkpt>
    </trkseg>
  </trk>
</gpx>